Webcam Flughafen St.Gallen-Altenrhein

Live-Bilder und Zeitraffer LSZR / ACH.

 

Live aus Altenrhein
LIVE
LSZR 041050Z 14003KT 120V190 8000 -RA SCT037 BKN041 14/11 Q1017 NOSIG RMK G
Zeitraffer heute
2020-08-04 00:14:25
LSZR 032150Z AUTO 26006KT 210V290 8000 RA BKN013 OVC015 OVC017 14/12 Q1012